Time;durP1;ratioP1;P1;durP2;ratioP2;P2;SDS_P1;SDS_P2;PMS_P1;PMS_P2;Temp;Humidity;BMP_temperature;BMP_pressure;BME280_temperature;BME280_humidity;BME280_pressure;Samples;Min_cycle;Max_cycle;Signal;HPM_P1;HPM_P2
2021/08/10 00:02:04;;;;;;;2.90;2.67;;;16.40;99.90;;;;;;4957570;28;20181;-54
2021/08/10 00:04:30;;;;;;;3.63;2.83;;;16.40;99.90;;;;;;4958371;28;20657;-54
2021/08/10 00:06:56;;;;;;;2.67;2.47;;;16.50;99.90;;;;;;4964270;28;20295;-54
2021/08/10 00:09:21;;;;;;;3.10;2.90;;;16.30;99.90;;;;;;4961001;28;20543;-54
2021/08/10 00:11:47;;;;;;;2.60;2.40;;;16.30;99.90;;;;;;4962262;28;20687;-54
2021/08/10 00:14:13;;;;;;;3.20;2.70;;;15.90;99.90;;;;;;4959042;28;20181;-54
2021/08/10 00:16:39;;;;;;;3.30;2.60;;;16.20;99.90;;;;;;4959305;28;20237;-53
2021/08/10 00:19:05;;;;;;;2.70;2.50;;;16.20;99.90;;;;;;4956119;28;20184;-53
2021/08/10 00:21:30;;;;;;;5.53;2.97;;;16.10;99.90;;;;;;4961303;28;20185;-53
2021/08/10 00:23:56;;;;;;;4.90;2.77;;;16.20;99.90;;;;;;4950067;28;20500;-53
2021/08/10 00:26:22;;;;;;;2.90;2.70;;;16.50;99.90;;;;;;4960987;28;20215;-54
2021/08/10 00:28:47;;;;;;;4.17;2.40;;;16.30;99.90;;;;;;4958647;28;20176;-53
2021/08/10 00:31:13;;;;;;;3.07;2.43;;;16.50;99.90;;;;;;4958493;28;20209;-53
2021/08/10 00:33:38;;;;;;;6.10;2.73;;;16.30;99.90;;;;;;4959023;28;20187;-54
2021/08/10 00:36:04;;;;;;;2.97;2.67;;;16.40;99.90;;;;;;4959390;28;20200;-54
2021/08/10 00:38:30;;;;;;;3.07;2.77;;;16.10;99.90;;;;;;4957467;28;20178;-53
2021/08/10 00:40:57;;;;;;;2.90;2.60;;;16.20;99.90;;;;;;4955059;28;20440;-53
2021/08/10 00:43:32;;;;;;;3.05;2.75;;;16.20;99.90;;;;;;4957382;28;20616;-53
2021/08/10 00:45:59;;;;;;;3.13;2.47;;;16.20;99.90;;;;;;4955723;28;20239;-54
2021/08/10 00:48:25;;;;;;;9.75;4.38;;;16.20;99.90;;;;;;4951601;28;20264;-53
2021/08/10 00:50:50;;;;;;;4.60;2.63;;;15.90;99.90;;;;;;4958345;28;20229;-54
2021/08/10 00:53:16;;;;;;;2.73;2.53;;;16.10;99.90;;;;;;4958539;28;20172;-54
2021/08/10 00:55:42;;;;;;;4.05;2.83;;;15.90;99.90;;;;;;4958267;28;20290;-54
2021/08/10 00:58:09;;;;;;;3.23;2.27;;;16.00;99.90;;;;;;4958622;28;20263;-54
2021/08/10 01:00:35;;;;;;;3.35;2.65;;;16.00;99.90;;;;;;4960888;28;20193;-54
2021/08/10 01:03:01;;;;;;;3.73;2.40;;;15.70;99.90;;;;;;4964931;28;20197;-54
2021/08/10 01:05:30;;;;;;;4.23;2.80;;;15.90;99.90;;;;;;4957940;28;20220;-54
2021/08/10 01:08:05;;;;;;;2.58;2.38;;;15.80;99.90;;;;;;4954970;28;20189;-53
2021/08/10 01:10:44;;;;;;;3.70;2.60;;;16.10;99.90;;;;;;4956413;28;20265;-55
2021/08/10 01:13:24;;;;;;;2.45;2.25;;;16.00;99.90;;;;;;4961552;28;20185;-53
2021/08/10 01:16:13;;;;;;;3.47;2.30;;;15.80;99.90;;;;;;4959513;28;20340;-53
2021/08/10 01:19:08;;;;;;;2.88;2.47;;;15.80;99.90;;;;;;4922551;28;20192;-53
2021/08/10 01:21:41;;;;;;;2.83;2.50;;;15.80;99.90;;;;;;4940971;28;20192;-53
2021/08/10 01:24:17;;;;;;;6.40;2.85;;;15.70;99.90;;;;;;4962693;28;20184;-53
2021/08/10 01:26:54;;;;;;;3.97;2.42;;;15.80;99.90;;;;;;4956597;28;20271;-54
2021/08/10 01:29:26;;;;;;;2.63;2.42;;;15.80;99.90;;;;;;4953395;28;20188;-54
2021/08/10 01:31:53;;;;;;;3.95;3.05;;;15.80;99.90;;;;;;4951489;28;20296;-53
2021/08/10 01:34:37;;;;;;;4.10;2.65;;;15.50;99.90;;;;;;4962603;28;20176;-53
2021/08/10 01:37:07;;;;;;;3.90;2.20;;;15.70;99.90;;;;;;4961537;28;20228;-54
2021/08/10 01:39:35;;;;;;;3.03;2.20;;;15.80;99.90;;;;;;4958671;28;22612;-53
2021/08/10 01:42:01;;;;;;;2.72;2.53;;;15.70;99.90;;;;;;4960433;28;20211;-54
2021/08/10 01:44:28;;;;;;;2.90;2.60;;;15.70;99.90;;;;;;4957324;28;20181;-54
2021/08/10 01:46:58;;;;;;;2.70;2.50;;;15.50;99.90;;;;;;4957961;28;20208;-54
2021/08/10 01:49:26;;;;;;;2.80;2.50;;;15.70;99.90;;;;;;4956025;28;20223;-53
2021/08/10 01:51:53;;;;;;;4.47;2.67;;;15.40;99.90;;;;;;4961431;28;20685;-54
2021/08/10 01:54:20;;;;;;;3.00;2.70;;;15.60;99.90;;;;;;4955553;28;20211;-53
2021/08/10 01:56:46;;;;;;;2.50;2.30;;;15.30;99.90;;;;;;4953943;28;20219;-54
2021/08/10 01:59:14;;;;;;;3.63;2.73;;;15.40;99.90;;;;;;4958028;28;20191;-53
2021/08/10 02:01:41;;;;;;;3.45;2.70;;;15.50;99.90;;;;;;4955692;28;20441;-54
2021/08/10 02:04:08;;;;;;;2.83;2.53;;;15.50;99.90;;;;;;4953973;28;20540;-53
2021/08/10 02:06:37;;;;;;;2.80;2.45;;;15.60;99.90;;;;;;4954046;28;20208;-54
2021/08/10 02:09:03;;;;;;;4.30;2.78;;;15.50;99.90;;;;;;4960758;28;20364;-54
2021/08/10 02:11:30;;;;;;;3.15;2.90;;;15.40;99.90;;;;;;4952936;28;20204;-53
2021/08/10 02:13:58;;;;;;;4.57;3.20;;;15.40;99.90;;;;;;4958036;28;20217;-54
2021/08/10 02:16:25;;;;;;;3.13;2.70;;;15.50;99.90;;;;;;4961869;28;20203;-53
2021/08/10 02:18:52;;;;;;;4.82;3.33;;;15.20;99.90;;;;;;4955003;28;20173;-54
2021/08/10 02:21:33;;;;;;;2.83;2.50;;;15.20;99.90;;;;;;4959029;28;20585;-54
2021/08/10 02:24:08;;;;;;;2.75;2.55;;;15.20;99.90;;;;;;4954984;28;20188;-54
2021/08/10 02:26:52;;;;;;;2.85;2.65;;;15.20;99.90;;;;;;4957786;28;20212;-53
2021/08/10 02:29:19;;;;;;;5.80;2.90;;;15.20;99.90;;;;;;4961976;28;20180;-53
2021/08/10 02:31:47;;;;;;;4.50;3.08;;;15.10;99.90;;;;;;4956294;28;20204;-53
2021/08/10 02:34:16;;;;;;;2.53;2.33;;;15.30;99.90;;;;;;4957492;28;20247;-53
2021/08/10 02:36:43;;;;;;;3.00;2.70;;;15.00;99.90;;;;;;4948673;28;20280;-53
2021/08/10 02:39:09;;;;;;;3.85;2.80;;;15.20;99.90;;;;;;4961178;28;20676;-53
2021/08/10 02:41:39;;;;;;;6.15;2.20;;;15.20;99.90;;;;;;4951841;28;20617;-54
2021/08/10 02:44:06;;;;;;;4.45;2.83;;;15.20;99.90;;;;;;4957687;28;20220;-54
2021/08/10 02:46:32;;;;;;;3.88;3.40;;;14.90;99.90;;;;;;4957671;28;20211;-54
2021/08/10 02:48:58;;;;;;;3.13;2.40;;;14.90;99.90;;;;;;4954233;28;20197;-53
2021/08/10 02:51:25;;;;;;;4.00;3.30;;;14.80;99.90;;;;;;4965900;28;20199;-54
2021/08/10 02:53:51;;;;;;;3.13;2.92;;;15.10;99.90;;;;;;4957201;28;20185;-53
2021/08/10 02:56:23;;;;;;;3.95;3.50;;;14.90;99.90;;;;;;4962363;28;20208;-51
2021/08/10 02:59:05;;;;;;;2.85;2.65;;;15.00;99.90;;;;;;4953764;28;20235;-52
2021/08/10 03:01:35;;;;;;;3.55;3.00;;;14.90;99.90;;;;;;4955684;28;20192;-52
2021/08/10 03:04:02;;;;;;;3.13;2.83;;;15.10;99.90;;;;;;4962622;28;20200;-51
2021/08/10 03:06:30;;;;;;;3.25;2.95;;;14.80;99.90;;;;;;4959390;28;20205;-52
2021/08/10 03:09:00;;;;;;;3.10;2.90;;;14.90;99.90;;;;;;4958822;28;20235;-52
2021/08/10 03:11:30;;;;;;;3.17;2.95;;;15.00;99.90;;;;;;4964565;28;20570;-52
2021/08/10 03:13:57;;;;;;;3.25;2.95;;;15.20;99.90;;;;;;4953810;28;20189;-52
2021/08/10 03:16:25;;;;;;;3.85;2.58;;;15.00;99.90;;;;;;4977152;28;20208;-52
2021/08/10 03:18:52;;;;;;;3.22;3.03;;;14.80;99.90;;;;;;4955137;28;20216;-52
2021/08/10 03:21:21;;;;;;;4.20;3.10;;;15.00;99.90;;;;;;4954877;28;20662;-51
2021/08/10 03:23:49;;;;;;;3.22;2.92;;;15.10;99.90;;;;;;4962149;28;20323;-52
2021/08/10 03:26:16;;;;;;;4.03;3.22;;;14.90;99.90;;;;;;4959345;28;20224;-52
2021/08/10 03:28:44;;;;;;;4.65;3.47;;;15.10;99.90;;;;;;4959673;28;20190;-51
2021/08/10 03:31:11;;;;;;;4.03;3.10;;;15.00;99.90;;;;;;4957815;28;20201;-52
2021/08/10 03:33:39;;;;;;;5.22;3.58;;;15.10;99.90;;;;;;4958070;28;20679;-51
2021/08/10 03:36:05;;;;;;;3.35;3.05;;;15.00;99.90;;;;;;4959176;28;20717;-51
2021/08/10 03:38:34;;;;;;;3.78;3.35;;;15.00;99.90;;;;;;4965171;28;20172;-52
2021/08/10 03:40:59;;;;;;;4.32;3.42;;;15.00;99.90;;;;;;4957016;28;20191;-52
2021/08/10 03:43:27;;;;;;;5.83;3.20;;;15.30;99.90;;;;;;4962326;28;20282;-52
2021/08/10 03:45:54;;;;;;;3.72;2.90;;;15.30;99.90;;;;;;4953836;28;20466;-52
2021/08/10 03:48:21;;;;;;;3.67;3.35;;;15.10;99.90;;;;;;4960801;28;20548;-52
2021/08/10 03:50:52;;;;;;;3.50;3.20;;;15.00;99.90;;;;;;4964936;28;20200;-51
2021/08/10 03:53:21;;;;;;;6.05;3.20;;;15.20;99.90;;;;;;4959330;28;20735;-52
2021/08/10 03:55:49;;;;;;;4.35;3.25;;;14.90;99.90;;;;;;4958928;28;20236;-52
2021/08/10 03:58:15;;;;;;;4.60;3.17;;;14.90;99.90;;;;;;4964512;28;20191;-52
2021/08/10 04:00:42;;;;;;;3.45;3.05;;;15.00;99.90;;;;;;4958632;28;20181;-52
2021/08/10 04:03:10;;;;;;;4.75;3.10;;;15.10;99.90;;;;;;4952080;28;20181;-52
2021/08/10 04:05:44;;;;;;;6.07;3.60;;;15.20;99.90;;;;;;4962523;28;20256;-52
2021/08/10 04:08:15;;;;;;;4.35;3.28;;;15.00;99.90;;;;;;4960551;28;20192;-51
2021/08/10 04:10:47;;;;;;;6.40;3.40;;;14.90;99.90;;;;;;4953906;28;20189;-51
2021/08/10 04:13:13;;;;;;;4.10;2.53;;;14.90;99.90;;;;;;4959207;28;20189;-52
2021/08/10 04:15:44;;;;;;;7.15;4.05;;;14.90;99.90;;;;;;4961821;28;20211;-51
2021/08/10 04:18:15;;;;;;;2.88;2.67;;;14.70;99.90;;;;;;4963123;28;20181;-52
2021/08/10 04:20:46;;;;;;;3.65;3.35;;;15.10;99.90;;;;;;4954813;28;20187;-52
2021/08/10 04:23:12;;;;;;;3.40;3.08;;;14.90;99.90;;;;;;4962170;28;20188;-51
2021/08/10 04:25:38;;;;;;;4.10;3.35;;;15.10;99.90;;;;;;4959628;28;20207;-52
2021/08/10 04:28:04;;;;;;;7.20;3.30;;;15.00;99.90;;;;;;4957732;28;20704;-51
2021/08/10 04:30:29;;;;;;;7.20;4.17;;;15.00;99.90;;;;;;4954955;28;20223;-52
2021/08/10 04:32:55;;;;;;;3.57;3.27;;;15.00;99.90;;;;;;4959492;28;20467;-52
2021/08/10 04:35:21;;;;;;;3.83;2.93;;;15.10;99.90;;;;;;4976143;28;20206;-52
2021/08/10 04:37:47;;;;;;;3.07;2.87;;;15.10;99.90;;;;;;4956955;28;20440;-54
2021/08/10 04:40:13;;;;;;;4.47;3.13;;;15.10;99.90;;;;;;4955924;28;20189;-53
2021/08/10 04:42:39;;;;;;;3.90;2.90;;;15.10;99.90;;;;;;4958744;28;20199;-52
2021/08/10 04:45:05;;;;;;;3.73;2.90;;;15.40;99.90;;;;;;4964248;28;20238;-54
2021/08/10 04:47:31;;;;;;;3.00;2.70;;;15.40;99.90;;;;;;4960432;28;20684;-51
2021/08/10 04:49:58;;;;;;;4.63;4.07;;;15.60;99.90;;;;;;4952134;28;20189;-54
2021/08/10 04:52:24;;;;;;;4.40;3.20;;;15.60;99.90;;;;;;4964688;28;20479;-54
2021/08/10 04:54:50;;;;;;;3.22;2.70;;;15.60;99.90;;;;;;4954171;28;20194;-54
2021/08/10 04:57:16;;;;;;;3.50;3.20;;;15.70;99.90;;;;;;4950248;28;20663;-54
2021/08/10 04:59:42;;;;;;;4.40;3.33;;;16.20;99.90;;;;;;4962333;28;20262;-54
2021/08/10 05:02:07;;;;;;;6.53;4.40;;;16.00;99.90;;;;;;4957699;28;20201;-54
2021/08/10 05:04:33;;;;;;;6.27;3.20;;;15.80;99.90;;;;;;4954361;28;20192;-54
2021/08/10 05:07:01;;;;;;;3.80;3.20;;;16.10;99.90;;;;;;4961741;28;20312;-55
2021/08/10 05:09:30;;;;;;;3.60;3.30;;;16.10;99.90;;;;;;4958972;28;20173;-59
2021/08/10 05:11:57;;;;;;;7.35;3.80;;;16.40;99.90;;;;;;4948548;28;20209;-53
2021/08/10 05:14:23;;;;;;;3.65;3.30;;;16.20;99.90;;;;;;4959561;28;20228;-53
2021/08/10 05:16:49;;;;;;;4.28;3.22;;;16.30;99.90;;;;;;4955296;28;20559;-53
2021/08/10 05:19:14;;;;;;;4.60;3.27;;;16.30;99.90;;;;;;4955525;28;20188;-52
2021/08/10 05:21:40;;;;;;;5.37;3.40;;;16.10;99.90;;;;;;4955717;28;20275;-53
2021/08/10 05:24:06;;;;;;;4.63;4.23;;;16.50;99.90;;;;;;4956549;28;20188;-52
2021/08/10 05:26:31;;;;;;;3.80;3.47;;;16.60;99.90;;;;;;4959560;28;20208;-52
2021/08/10 05:28:57;;;;;;;7.20;3.10;;;16.70;99.90;;;;;;4953236;28;20276;-52
2021/08/10 05:31:23;;;;;;;3.50;3.20;;;16.80;99.90;;;;;;4963855;28;20204;-52
2021/08/10 05:33:49;;;;;;;4.03;3.63;;;16.80;99.90;;;;;;4958160;28;20184;-53
2021/08/10 05:36:14;;;;;;;3.87;3.47;;;16.70;99.90;;;;;;4955830;28;20211;-54
2021/08/10 05:38:43;;;;;;;4.37;3.17;;;17.10;99.90;;;;;;4962199;28;20432;-54
2021/08/10 05:41:09;;;;;;;3.50;3.20;;;17.10;99.90;;;;;;4953656;28;20666;-54
2021/08/10 05:43:35;;;;;;;7.72;6.05;;;17.00;99.90;;;;;;4952809;28;20596;-53
2021/08/10 05:46:01;;;;;;;7.77;4.57;;;17.20;99.90;;;;;;4963062;28;20216;-54
2021/08/10 05:48:27;;;;;;;4.97;3.38;;;17.10;99.90;;;;;;4959630;28;20222;-54
2021/08/10 05:50:53;;;;;;;4.40;3.47;;;17.30;99.90;;;;;;4955529;28;20255;-55
2021/08/10 05:53:19;;;;;;;5.78;3.63;;;17.30;99.90;;;;;;4942659;28;21036;-54
2021/08/10 05:55:45;;;;;;;3.23;2.93;;;17.30;99.90;;;;;;4956154;28;20228;-53
2021/08/10 05:58:11;;;;;;;5.60;3.37;;;17.30;99.90;;;;;;4955544;28;20185;-55
2021/08/10 06:00:37;;;;;;;5.40;3.10;;;17.80;99.90;;;;;;4959732;28;20208;-53
2021/08/10 06:03:03;;;;;;;3.25;2.95;;;17.70;99.90;;;;;;4952500;28;20192;-54
2021/08/10 06:05:29;;;;;;;3.33;2.80;;;17.80;99.90;;;;;;4960963;28;20617;-53
2021/08/10 06:07:54;;;;;;;4.50;3.37;;;17.80;99.90;;;;;;4960334;28;20318;-55
2021/08/10 06:10:20;;;;;;;4.00;3.00;;;18.00;99.90;;;;;;4955749;28;20679;-55
2021/08/10 06:12:46;;;;;;;4.43;3.20;;;17.90;99.90;;;;;;4953828;28;20208;-57
2021/08/10 06:15:12;;;;;;;6.73;3.40;;;18.00;99.90;;;;;;4958395;28;20244;-53
2021/08/10 06:17:38;;;;;;;5.77;3.33;;;18.00;99.90;;;;;;4960552;28;20186;-53
2021/08/10 06:20:04;;;;;;;5.70;3.00;;;18.10;99.90;;;;;;4972467;28;20854;-56
2021/08/10 06:22:30;;;;;;;5.78;3.80;;;18.10;99.90;;;;;;4956560;28;20191;-56
2021/08/10 06:24:55;;;;;;;4.33;3.40;;;18.20;99.90;;;;;;4958298;28;20193;-56
2021/08/10 06:27:22;;;;;;;3.83;3.13;;;18.30;99.90;;;;;;4954630;28;20503;-56
2021/08/10 06:29:49;;;;;;;6.82;4.28;;;18.30;99.90;;;;;;4954641;28;20620;-54
2021/08/10 06:32:14;;;;;;;3.38;3.08;;;18.50;99.90;;;;;;4961058;28;20220;-53
2021/08/10 06:34:41;;;;;;;4.00;3.30;;;18.50;99.90;;;;;;4956507;28;20195;-58
2021/08/10 06:37:06;;;;;;;6.57;3.08;;;18.70;99.90;;;;;;4961625;28;20588;-53
2021/08/10 06:39:33;;;;;;;4.00;2.87;;;18.80;99.90;;;;;;4952869;28;20184;-54
2021/08/10 06:41:58;;;;;;;4.07;3.20;;;19.00;99.90;;;;;;4953453;28;20207;-56
2021/08/10 06:44:24;;;;;;;4.73;3.20;;;19.30;99.90;;;;;;4957843;28;20180;-54
2021/08/10 06:46:50;;;;;;;3.87;3.57;;;19.40;99.90;;;;;;4954042;28;20618;-55
2021/08/10 06:49:15;;;;;;;3.37;3.00;;;19.60;99.90;;;;;;4955927;28;20387;-54
2021/08/10 06:51:41;;;;;;;6.50;3.10;;;19.70;99.90;;;;;;4946064;28;20200;-55
2021/08/10 06:54:07;;;;;;;3.20;2.70;;;19.80;99.90;;;;;;4957039;28;20576;-56
2021/08/10 06:56:33;;;;;;;3.37;2.37;;;20.20;99.90;;;;;;4952358;28;20200;-55
2021/08/10 06:58:59;;;;;;;3.57;3.07;;;20.60;99.90;;;;;;4962729;28;20258;-55
2021/08/10 07:01:24;;;;;;;6.30;3.07;;;21.10;99.10;;;;;;4958041;28;20459;-55
2021/08/10 07:03:50;;;;;;;4.90;3.13;;;21.10;98.20;;;;;;4955499;28;20477;-53
2021/08/10 07:06:16;;;;;;;4.87;4.07;;;21.20;98.00;;;;;;4954740;28;20192;-54
2021/08/10 07:08:41;;;;;;;4.40;3.67;;;21.60;97.90;;;;;;4951322;28;20216;-54
2021/08/10 07:11:07;;;;;;;3.57;3.27;;;22.00;97.20;;;;;;4952303;28;20307;-53
2021/08/10 07:13:33;;;;;;;4.10;3.33;;;23.00;95.90;;;;;;4960936;28;20223;-54
2021/08/10 07:15:58;;;;;;;2.70;2.50;;;23.70;93.40;;;;;;4955518;28;20210;-53
2021/08/10 07:18:24;;;;;;;2.97;2.67;;;24.40;92.60;;;;;;4961672;28;20441;-54
2021/08/10 07:20:50;;;;;;;2.40;2.20;;;25.20;90.60;;;;;;4952873;28;20607;-54
2021/08/10 07:23:15;;;;;;;3.80;2.60;;;25.50;89.40;;;;;;4960230;28;20188;-54
2021/08/10 07:25:41;;;;;;;3.93;3.43;;;26.10;86.60;;;;;;4952036;28;20222;-55
2021/08/10 07:28:07;;;;;;;3.57;2.47;;;25.90;85.70;;;;;;4957907;28;20189;-53
2021/08/10 07:30:32;;;;;;;3.80;3.40;;;25.70;88.20;;;;;;4974009;28;20481;-56
2021/08/10 07:32:58;;;;;;;3.10;2.80;;;25.70;87.10;;;;;;4954391;28;20551;-55
2021/08/10 07:35:23;;;;;;;2.90;2.60;;;26.00;85.30;;;;;;4957399;28;20210;-54
2021/08/10 07:37:49;;;;;;;2.70;2.50;;;26.10;84.40;;;;;;4956516;28;20658;-54
2021/08/10 07:40:15;;;;;;;4.70;2.40;;;26.00;84.50;;;;;;4955684;28;20323;-53
2021/08/10 07:42:42;;;;;;;2.90;2.67;;;25.90;84.70;;;;;;4962326;28;20300;-54
2021/08/10 07:45:08;;;;;;;4.63;3.07;;;25.80;85.20;;;;;;4976909;28;20456;-54
2021/08/10 07:47:34;;;;;;;3.53;3.00;;;25.10;86.90;;;;;;4957651;28;20434;-54
2021/08/10 07:50:00;;;;;;;3.00;2.50;;;25.10;88.20;;;;;;4954491;28;21114;-53
2021/08/10 07:52:26;;;;;;;3.43;2.90;;;25.30;87.50;;;;;;4960848;28;20475;-57
2021/08/10 07:54:52;;;;;;;3.13;2.57;;;25.70;86.50;;;;;;4954393;28;20447;-56
2021/08/10 07:57:18;;;;;;;3.23;2.30;;;26.20;84.20;;;;;;4954769;28;20293;-56
2021/08/10 07:59:43;;;;;;;2.73;2.47;;;26.90;82.20;;;;;;4958145;28;20601;-56
2021/08/10 08:02:09;;;;;;;2.80;2.47;;;27.70;79.60;;;;;;4957989;28;20194;-55
2021/08/10 08:04:35;;;;;;;4.60;2.43;;;28.00;77.10;;;;;;4954672;28;20194;-54
2021/08/10 08:07:04;;;;;;;4.40;2.90;;;28.10;75.40;;;;;;4954440;28;20225;-55
2021/08/10 08:09:29;;;;;;;3.03;2.73;;;27.90;76.50;;;;;;4955384;28;20197;-53
2021/08/10 08:11:55;;;;;;;3.10;2.70;;;27.70;77.20;;;;;;4954031;28;20544;-55
2021/08/10 08:14:22;;;;;;;3.93;3.20;;;27.20;78.10;;;;;;4959551;28;20759;-53
2021/08/10 08:16:48;;;;;;;6.70;2.53;;;27.10;79.70;;;;;;4961314;28;20209;-53
2021/08/10 08:19:14;;;;;;;3.97;2.93;;;26.80;81.40;;;;;;4963394;28;20440;-53
2021/08/10 08:21:40;;;;;;;3.83;2.93;;;26.60;83.50;;;;;;4960660;28;20547;-54
2021/08/10 08:24:06;;;;;;;5.03;2.97;;;26.70;82.30;;;;;;4961293;28;20246;-53
2021/08/10 08:26:31;;;;;;;4.13;3.20;;;27.50;81.30;;;;;;4970202;28;20215;-55
2021/08/10 08:28:57;;;;;;;4.00;3.00;;;28.30;77.90;;;;;;4959906;28;20994;-54
2021/08/10 08:31:23;;;;;;;3.07;2.50;;;28.70;76.00;;;;;;4962687;28;20208;-56
2021/08/10 08:33:50;;;;;;;2.87;2.60;;;27.90;77.20;;;;;;4957908;28;20385;-56
2021/08/10 08:36:15;;;;;;;2.60;2.40;;;28.10;77.70;;;;;;4958869;28;20690;-56
2021/08/10 08:38:41;;;;;;;3.50;2.30;;;28.50;76.10;;;;;;4956409;28;20442;-55
2021/08/10 08:41:07;;;;;;;2.37;2.17;;;29.00;72.60;;;;;;4958419;28;20216;-56
2021/08/10 08:43:33;;;;;;;2.90;2.27;;;29.80;70.80;;;;;;4962580;28;20215;-56
2021/08/10 08:45:58;;;;;;;4.13;3.83;;;30.20;66.60;;;;;;4958407;28;20490;-55
2021/08/10 08:48:26;;;;;;;4.60;3.90;;;30.40;65.80;;;;;;4957439;28;20184;-54
2021/08/10 08:50:53;;;;;;;2.90;2.33;;;30.60;65.60;;;;;;4957152;28;20196;-55
2021/08/10 08:53:19;;;;;;;2.23;2.13;;;32.00;62.30;;;;;;4958550;28;20776;-55
2021/08/10 08:55:46;;;;;;;2.37;2.17;;;32.40;58.60;;;;;;4958718;28;20961;-56
2021/08/10 08:58:13;;;;;;;2.30;2.10;;;32.30;58.40;;;;;;4963609;28;20471;-55
2021/08/10 09:00:40;;;;;;;2.30;2.10;;;32.40;57.00;;;;;;4956152;28;20441;-54
2021/08/10 09:03:06;;;;;;;3.77;2.37;;;32.20;57.40;;;;;;4963038;28;20432;-55
2021/08/10 09:05:34;;;;;;;2.37;2.13;;;31.90;57.70;;;;;;4956479;28;20456;-54
2021/08/10 09:08:29;;;;;;;2.80;2.37;;;31.10;57.70;;;;;;4961949;28;20437;-54
2021/08/10 09:11:00;;;;;;;3.23;2.00;;;30.20;60.50;;;;;;4945401;28;20451;-56
2021/08/10 09:13:26;;;;;;;2.40;1.80;;;30.60;59.30;;;;;;4953880;28;20553;-55
2021/08/10 09:15:52;;;;;;;1.70;1.60;;;30.40;58.30;;;;;;4955003;28;20491;-54
2021/08/10 09:18:20;;;;;;;2.23;1.90;;;30.10;57.50;;;;;;4962987;28;20519;-55
2021/08/10 09:21:07;;;;;;;2.30;2.10;;;30.10;58.20;;;;;;4951310;28;20890;-54
2021/08/10 09:23:41;;;;;;;1.97;1.77;;;29.70;58.30;;;;;;4955264;28;20434;-53
2021/08/10 09:26:12;;;;;;;4.07;2.27;;;29.00;60.60;;;;;;4954717;28;20452;-54
2021/08/10 09:28:39;;;;;;;2.27;2.00;;;28.50;62.60;;;;;;4956135;28;20549;-56
2021/08/10 09:31:27;;;;;;;2.90;2.20;;;28.10;64.90;;;;;;4962661;28;20464;-55
2021/08/10 09:33:57;;;;;;;3.60;2.20;;;27.70;65.50;;;;;;4949701;28;20450;-56
2021/08/10 09:36:24;;;;;;;3.13;1.97;;;27.70;66.00;;;;;;4951062;28;20453;-56
2021/08/10 09:38:50;;;;;;;3.47;2.50;;;27.60;65.80;;;;;;4955459;28;20944;-55
2021/08/10 09:41:16;;;;;;;3.67;2.30;;;27.30;66.70;;;;;;4955353;28;20537;-56
2021/08/10 09:43:43;;;;;;;2.80;2.20;;;27.30;67.70;;;;;;4959843;28;20256;-55
2021/08/10 09:46:18;;;;;;;2.30;2.13;;;27.00;68.90;;;;;;4955897;28;21115;-54
2021/08/10 09:48:50;;;;;;;2.40;2.20;;;27.10;69.70;;;;;;4948292;28;20455;-53
2021/08/10 09:51:17;;;;;;;2.90;2.00;;;27.20;69.20;;;;;;4961942;28;20471;-53
2021/08/10 09:53:56;;;;;;;3.40;2.30;;;27.30;69.80;;;;;;4950843;28;20454;-55
2021/08/10 09:56:47;;;;;;;4.70;4.00;;;27.00;67.70;;;;;;4953932;28;20472;-56
2021/08/10 09:59:13;;;;;;;4.20;2.67;;;27.10;69.30;;;;;;4954474;28;20438;-55
2021/08/10 10:01:41;;;;;;;3.97;2.77;;;26.80;68.10;;;;;;4954226;28;20464;-55
2021/08/10 10:04:10;;;;;;;4.50;3.00;;;26.90;68.60;;;;;;4954622;28;20448;-56
2021/08/10 10:06:36;;;;;;;3.17;2.33;;;27.10;66.50;;;;;;4956102;28;20770;-52
2021/08/10 10:09:04;;;;;;;4.60;2.10;;;27.00;66.50;;;;;;4956751;28;20524;-53
2021/08/10 10:11:31;;;;;;;3.27;2.20;;;26.90;68.00;;;;;;4953308;28;20237;-56
2021/08/10 10:13:59;;;;;;;2.50;2.30;;;26.80;69.40;;;;;;4955080;28;20533;-54
2021/08/10 10:16:32;;;;;;;2.47;2.10;;;26.70;69.00;;;;;;4952777;28;20871;-54
2021/08/10 10:19:10;;;;;;;3.57;2.63;;;26.80;65.00;;;;;;4957739;28;20429;-54
2021/08/10 10:21:41;;;;;;;2.73;2.10;;;26.80;64.50;;;;;;4957169;28;20951;-55
2021/08/10 10:24:07;;;;;;;3.27;2.50;;;26.90;64.70;;;;;;4958176;28;20895;-55
2021/08/10 10:26:40;;;;;;;3.43;1.87;;;26.90;65.20;;;;;;4960778;28;21064;-55
2021/08/10 10:29:06;;;;;;;2.20;2.10;;;26.80;66.00;;;;;;4956359;28;20780;-54
2021/08/10 10:31:32;;;;;;;5.83;2.43;;;26.90;65.90;;;;;;4960450;28;20470;-55
2021/08/10 10:33:59;;;;;;;3.03;2.17;;;26.90;66.00;;;;;;4954538;28;20429;-55
2021/08/10 10:36:25;;;;;;;2.43;2.17;;;26.70;66.20;;;;;;4958052;28;20459;-55
2021/08/10 10:38:56;;;;;;;2.23;2.00;;;26.40;66.50;;;;;;4949459;28;20430;-55
2021/08/10 10:41:25;;;;;;;12.20;2.30;;;26.50;68.80;;;;;;4950546;28;20513;-55
2021/08/10 10:43:54;;;;;;;2.60;2.10;;;26.40;68.90;;;;;;4954854;28;20806;-55
2021/08/10 10:46:27;;;;;;;3.60;2.10;;;26.50;69.10;;;;;;4952016;28;20467;-56
2021/08/10 10:48:54;;;;;;;3.33;2.47;;;26.60;69.10;;;;;;4952596;28;20479;-54
2021/08/10 10:51:25;;;;;;;2.60;2.17;;;26.80;68.40;;;;;;4958134;28;20470;-55
2021/08/10 10:53:52;;;;;;;4.03;2.77;;;26.80;68.60;;;;;;4953520;28;20521;-55
2021/08/10 10:56:26;;;;;;;4.30;2.40;;;26.80;70.20;;;;;;4955924;28;20466;-55
2021/08/10 10:59:15;;;;;;;4.30;3.90;;;26.30;70.70;;;;;;4958234;28;20427;-56
2021/08/10 11:01:41;;;;;;;2.60;2.27;;;26.30;71.30;;;;;;4950978;28;20431;-55
2021/08/10 11:04:09;;;;;;;4.17;3.70;;;26.00;72.70;;;;;;4957320;28;20822;-55
2021/08/10 11:06:46;;;;;;;4.30;3.90;;;26.40;72.50;;;;;;4954990;28;20697;-55
2021/08/10 11:09:37;;;;;;;2.73;2.50;;;26.80;71.90;;;;;;4956514;28;20442;-56
2021/08/10 11:12:05;;;;;;;3.10;2.80;;;26.90;71.10;;;;;;4949590;28;20477;-56
2021/08/10 11:14:39;;;;;;;6.43;3.30;;;26.80;70.00;;;;;;4955190;28;20488;-56
2021/08/10 11:17:08;;;;;;;4.30;2.73;;;26.80;71.40;;;;;;4959826;28;20449;-55
2021/08/10 11:19:36;;;;;;;3.43;2.60;;;26.90;71.90;;;;;;4955560;28;20480;-56
2021/08/10 11:22:17;;;;;;;3.73;2.60;;;27.10;71.30;;;;;;4957753;28;20436;-56
2021/08/10 11:24:51;;;;;;;3.03;2.73;;;27.00;70.80;;;;;;4958005;28;20444;-56
2021/08/10 11:27:36;;;;;;;3.43;2.90;;;27.00;71.60;;;;;;4959009;28;20542;-56
2021/08/10 11:30:05;;;;;;;5.30;2.60;;;27.00;71.20;;;;;;4954184;28;20456;-55
2021/08/10 11:32:38;;;;;;;4.70;2.43;;;27.00;70.70;;;;;;4958369;28;20624;-54
2021/08/10 11:35:33;;;;;;;4.20;2.70;;;26.70;72.00;;;;;;4956779;28;20444;-54
2021/08/10 11:38:20;;;;;;;2.50;2.20;;;26.70;72.00;;;;;;4956564;28;20825;-54
2021/08/10 11:40:59;;;;;;;4.70;3.67;;;26.90;71.40;;;;;;4956916;28;20449;-54
2021/08/10 11:43:43;;;;;;;4.57;2.73;;;27.00;71.70;;;;;;4962304;28;20447;-53
2021/08/10 11:46:36;;;;;;;6.83;5.30;;;27.30;71.30;;;;;;4955670;28;20476;-54
2021/08/10 11:49:04;;;;;;;5.73;3.57;;;27.60;69.80;;;;;;4957315;28;20949;-54
2021/08/10 11:51:35;;;;;;;3.00;2.73;;;27.50;69.80;;;;;;4959328;28;20553;-54
2021/08/10 11:54:11;;;;;;;3.47;2.13;;;27.60;68.80;;;;;;4956858;28;20517;-55
2021/08/10 11:56:38;;;;;;;2.80;2.60;;;27.40;68.60;;;;;;4957331;28;20459;-55
2021/08/10 11:59:09;;;;;;;3.33;2.60;;;27.20;69.60;;;;;;4957494;28;20430;-56
2021/08/10 12:01:37;;;;;;;2.67;2.47;;;27.50;69.40;;;;;;4960638;28;20933;-55
2021/08/10 12:04:15;;;;;;;6.87;3.30;;;27.60;69.70;;;;;;4954264;28;20817;-54
2021/08/10 12:06:43;;;;;;;4.03;3.20;;;27.80;69.00;;;;;;4949713;28;20560;-56
2021/08/10 12:09:15;;;;;;;2.97;2.67;;;27.70;68.80;;;;;;4974171;28;20438;-54
2021/08/10 12:11:42;;;;;;;3.43;2.37;;;27.60;69.00;;;;;;4957001;28;21053;-54
2021/08/10 12:14:22;;;;;;;3.10;2.60;;;27.40;69.50;;;;;;4956390;28;20952;-56
2021/08/10 12:17:15;;;;;;;2.60;2.30;;;27.40;70.00;;;;;;4962978;28;20510;-54
2021/08/10 12:19:48;;;;;;;3.37;2.27;;;27.70;69.70;;;;;;4952390;28;20444;-52
2021/08/10 12:22:25;;;;;;;2.70;2.50;;;27.60;69.70;;;;;;4956007;28;20516;-53
2021/08/10 12:24:54;;;;;;;3.30;3.00;;;27.70;70.80;;;;;;4955194;28;21213;-53
2021/08/10 12:27:26;;;;;;;2.97;2.60;;;27.60;71.00;;;;;;4956181;28;21025;-55
2021/08/10 12:29:52;;;;;;;6.03;5.40;;;27.50;71.60;;;;;;4957193;28;20434;-54
2021/08/10 12:32:27;;;;;;;2.97;2.67;;;27.70;72.30;;;;;;4962413;28;20483;-53
2021/08/10 12:34:54;;;;;;;5.13;3.80;;;27.40;71.80;;;;;;4949258;28;20219;-52
2021/08/10 12:37:38;;;;;;;3.57;3.27;;;27.40;72.60;;;;;;4957888;28;20466;-52
2021/08/10 12:40:05;;;;;;;3.20;2.90;;;27.30;72.80;;;;;;4954460;28;20911;-54
2021/08/10 12:42:37;;;;;;;5.20;2.93;;;27.50;72.30;;;;;;4973956;28;20533;-54
2021/08/10 12:45:03;;;;;;;3.50;3.17;;;27.60;71.20;;;;;;4961304;28;20481;-53
2021/08/10 12:47:34;;;;;;;3.17;2.87;;;27.50;72.20;;;;;;4958411;28;20443;-54
2021/08/10 12:50:02;;;;;;;3.03;2.67;;;27.70;71.40;;;;;;4954069;28;20450;-55
2021/08/10 12:52:44;;;;;;;3.00;2.33;;;27.70;71.20;;;;;;4964019;28;20900;-56
2021/08/10 12:55:10;;;;;;;3.60;2.77;;;27.60;71.00;;;;;;4960662;28;20436;-55
2021/08/10 12:57:36;;;;;;;3.43;2.70;;;27.50;70.50;;;;;;4948549;28;20443;-54